sensor_id;sensor_type;location;lat;lon;timestamp;P1;durP1;ratioP1;P2;durP2;ratioP2
30301;SDS011;17111;52.130;5.028;2023-05-10T00:01:11;10.00;;;6.60;;
30301;SDS011;17111;52.130;5.028;2023-05-10T00:03:38;10.05;;;7.05;;
30301;SDS011;17111;52.130;5.028;2023-05-10T00:06:05;9.30;;;6.65;;
30301;SDS011;17111;52.130;5.028;2023-05-10T00:08:31;9.25;;;6.70;;
30301;SDS011;17111;52.130;5.028;2023-05-10T00:10:58;9.93;;;6.55;;
30301;SDS011;17111;52.130;5.028;2023-05-10T00:13:24;8.95;;;6.20;;
30301;SDS011;17111;52.130;5.028;2023-05-10T00:15:51;9.63;;;6.82;;
30301;SDS011;17111;52.130;5.028;2023-05-10T00:18:18;9.85;;;7.18;;
30301;SDS011;17111;52.130;5.028;2023-05-10T00:20:44;8.25;;;6.03;;
30301;SDS011;17111;52.130;5.028;2023-05-10T00:23:12;9.20;;;6.40;;
30301;SDS011;17111;52.130;5.028;2023-05-10T00:25:38;9.63;;;6.38;;
30301;SDS011;17111;52.130;5.028;2023-05-10T00:28:05;9.00;;;6.45;;
30301;SDS011;17111;52.130;5.028;2023-05-10T00:30:32;8.15;;;6.15;;
30301;SDS011;17111;52.130;5.028;2023-05-10T00:32:58;9.55;;;6.75;;
30301;SDS011;17111;52.130;5.028;2023-05-10T00:35:25;9.50;;;6.45;;
30301;SDS011;17111;52.130;5.028;2023-05-10T00:37:52;8.15;;;5.80;;
30301;SDS011;17111;52.130;5.028;2023-05-10T00:40:18;8.68;;;6.18;;
30301;SDS011;17111;52.130;5.028;2023-05-10T00:42:45;8.52;;;6.28;;
30301;SDS011;17111;52.130;5.028;2023-05-10T00:45:11;8.23;;;5.95;;
30301;SDS011;17111;52.130;5.028;2023-05-10T00:47:38;7.65;;;5.60;;
30301;SDS011;17111;52.130;5.028;2023-05-10T00:50:05;10.73;;;6.95;;
30301;SDS011;17111;52.130;5.028;2023-05-10T00:52:33;8.50;;;5.90;;
30301;SDS011;17111;52.130;5.028;2023-05-10T00:54:59;8.98;;;5.93;;
30301;SDS011;17111;52.130;5.028;2023-05-10T00:57:26;8.65;;;6.18;;
30301;SDS011;17111;52.130;5.028;2023-05-10T00:59:53;8.05;;;5.97;;
30301;SDS011;17111;52.130;5.028;2023-05-10T01:02:19;9.60;;;6.30;;
30301;SDS011;17111;52.130;5.028;2023-05-10T01:04:46;9.18;;;6.47;;
30301;SDS011;17111;52.130;5.028;2023-05-10T01:07:13;8.60;;;6.25;;
30301;SDS011;17111;52.130;5.028;2023-05-10T01:09:40;9.25;;;6.47;;
30301;SDS011;17111;52.130;5.028;2023-05-10T01:12:06;10.90;;;6.97;;
30301;SDS011;17111;52.130;5.028;2023-05-10T01:14:33;9.48;;;6.28;;
30301;SDS011;17111;52.130;5.028;2023-05-10T01:17:02;9.10;;;6.15;;
30301;SDS011;17111;52.130;5.028;2023-05-10T01:19:31;11.88;;;7.07;;
30301;SDS011;17111;52.130;5.028;2023-05-10T01:24:33;8.68;;;6.13;;
30301;SDS011;17111;52.130;5.028;2023-05-10T01:32:57;7.90;;;5.68;;
30301;SDS011;17111;52.130;5.028;2023-05-10T01:35:42;8.60;;;5.90;;
30301;SDS011;17111;52.130;5.028;2023-05-10T01:38:20;8.77;;;6.40;;
30301;SDS011;17111;52.130;5.028;2023-05-10T01:41:17;8.87;;;5.97;;
30301;SDS011;17111;52.130;5.028;2023-05-10T01:46:39;10.07;;;7.15;;
30301;SDS011;17111;52.130;5.028;2023-05-10T01:49:08;8.07;;;5.75;;
30301;SDS011;17111;52.130;5.028;2023-05-10T01:51:39;9.98;;;6.78;;
30301;SDS011;17111;52.130;5.028;2023-05-10T01:54:10;10.82;;;6.63;;
30301;SDS011;17111;52.130;5.028;2023-05-10T01:56:39;10.60;;;6.72;;
30301;SDS011;17111;52.130;5.028;2023-05-10T01:59:15;8.98;;;6.20;;
30301;SDS011;17111;52.130;5.028;2023-05-10T02:01:44;8.02;;;6.13;;
30301;SDS011;17111;52.130;5.028;2023-05-10T02:04:14;10.95;;;6.43;;
30301;SDS011;17111;52.130;5.028;2023-05-10T02:06:43;10.23;;;6.53;;
30301;SDS011;17111;52.130;5.028;2023-05-10T02:09:11;9.93;;;6.13;;
30301;SDS011;17111;52.130;5.028;2023-05-10T02:11:39;9.23;;;6.00;;
30301;SDS011;17111;52.130;5.028;2023-05-10T02:14:09;9.07;;;6.25;;
30301;SDS011;17111;52.130;5.028;2023-05-10T02:16:37;9.77;;;7.05;;
30301;SDS011;17111;52.130;5.028;2023-05-10T02:19:05;9.15;;;6.38;;
30301;SDS011;17111;52.130;5.028;2023-05-10T02:21:34;8.70;;;6.18;;
30301;SDS011;17111;52.130;5.028;2023-05-10T02:24:02;9.07;;;6.22;;
30301;SDS011;17111;52.130;5.028;2023-05-10T02:26:30;9.07;;;5.95;;
30301;SDS011;17111;52.130;5.028;2023-05-10T02:28:59;9.45;;;6.10;;
30301;SDS011;17111;52.130;5.028;2023-05-10T02:31:32;9.18;;;5.90;;
30301;SDS011;17111;52.130;5.028;2023-05-10T02:34:01;7.75;;;5.70;;
30301;SDS011;17111;52.130;5.028;2023-05-10T02:36:29;8.63;;;5.93;;
30301;SDS011;17111;52.130;5.028;2023-05-10T02:38:56;8.52;;;5.75;;
30301;SDS011;17111;52.130;5.028;2023-05-10T02:41:24;10.93;;;6.30;;
30301;SDS011;17111;52.130;5.028;2023-05-10T02:43:52;7.88;;;5.70;;
30301;SDS011;17111;52.130;5.028;2023-05-10T02:46:23;8.38;;;5.43;;
30301;SDS011;17111;52.130;5.028;2023-05-10T02:48:50;7.07;;;5.55;;
30301;SDS011;17111;52.130;5.028;2023-05-10T02:51:16;8.05;;;5.32;;
30301;SDS011;17111;52.130;5.028;2023-05-10T02:53:46;8.05;;;5.57;;
30301;SDS011;17111;52.130;5.028;2023-05-10T02:56:18;8.05;;;5.53;;
30301;SDS011;17111;52.130;5.028;2023-05-10T02:58:51;8.00;;;5.53;;
30301;SDS011;17111;52.130;5.028;2023-05-10T03:01:18;7.47;;;5.05;;
30301;SDS011;17111;52.130;5.028;2023-05-10T03:03:45;7.78;;;5.45;;
30301;SDS011;17111;52.130;5.028;2023-05-10T03:06:11;9.05;;;5.78;;
30301;SDS011;17111;52.130;5.028;2023-05-10T03:08:38;8.27;;;5.68;;
30301;SDS011;17111;52.130;5.028;2023-05-10T03:13:36;8.20;;;5.70;;
30301;SDS011;17111;52.130;5.028;2023-05-10T03:16:22;8.77;;;5.53;;
30301;SDS011;17111;52.130;5.028;2023-05-10T03:19:02;9.00;;;5.65;;
30301;SDS011;17111;52.130;5.028;2023-05-10T03:21:37;7.22;;;4.90;;
30301;SDS011;17111;52.130;5.028;2023-05-10T03:24:08;7.95;;;5.63;;
30301;SDS011;17111;52.130;5.028;2023-05-10T03:26:38;8.30;;;5.15;;
30301;SDS011;17111;52.130;5.028;2023-05-10T03:29:06;7.50;;;5.60;;
30301;SDS011;17111;52.130;5.028;2023-05-10T03:31:34;8.00;;;5.63;;
30301;SDS011;17111;52.130;5.028;2023-05-10T03:34:01;7.63;;;4.97;;
30301;SDS011;17111;52.130;5.028;2023-05-10T03:36:27;9.15;;;5.95;;
30301;SDS011;17111;52.130;5.028;2023-05-10T03:38:54;7.35;;;5.00;;
30301;SDS011;17111;52.130;5.028;2023-05-10T03:41:20;6.97;;;4.95;;
30301;SDS011;17111;52.130;5.028;2023-05-10T03:43:47;7.88;;;5.43;;
30301;SDS011;17111;52.130;5.028;2023-05-10T03:46:14;8.40;;;5.18;;
30301;SDS011;17111;52.130;5.028;2023-05-10T03:48:40;7.25;;;5.15;;
30301;SDS011;17111;52.130;5.028;2023-05-10T03:51:07;6.32;;;4.68;;
30301;SDS011;17111;52.130;5.028;2023-05-10T03:53:33;7.05;;;5.05;;
30301;SDS011;17111;52.130;5.028;2023-05-10T03:56:00;7.97;;;5.35;;
30301;SDS011;17111;52.130;5.028;2023-05-10T03:58:27;8.35;;;5.53;;
30301;SDS011;17111;52.130;5.028;2023-05-10T04:00:53;7.68;;;5.30;;
30301;SDS011;17111;52.130;5.028;2023-05-10T04:03:20;8.80;;;5.63;;
30301;SDS011;17111;52.130;5.028;2023-05-10T04:05:47;7.95;;;5.43;;
30301;SDS011;17111;52.130;5.028;2023-05-10T04:08:13;7.85;;;5.68;;
30301;SDS011;17111;52.130;5.028;2023-05-10T04:10:42;8.55;;;5.55;;
30301;SDS011;17111;52.130;5.028;2023-05-10T04:13:08;7.43;;;4.80;;
30301;SDS011;17111;52.130;5.028;2023-05-10T04:15:35;10.23;;;5.60;;
30301;SDS011;17111;52.130;5.028;2023-05-10T04:18:02;8.60;;;5.57;;
30301;SDS011;17111;52.130;5.028;2023-05-10T04:20:31;8.00;;;5.03;;
30301;SDS011;17111;52.130;5.028;2023-05-10T04:22:58;10.38;;;6.38;;
30301;SDS011;17111;52.130;5.028;2023-05-10T04:25:25;8.45;;;5.72;;
30301;SDS011;17111;52.130;5.028;2023-05-10T04:27:51;8.02;;;5.75;;
30301;SDS011;17111;52.130;5.028;2023-05-10T04:30:18;7.72;;;5.22;;
30301;SDS011;17111;52.130;5.028;2023-05-10T04:32:44;6.68;;;4.97;;
30301;SDS011;17111;52.130;5.028;2023-05-10T04:35:11;8.77;;;6.15;;
30301;SDS011;17111;52.130;5.028;2023-05-10T04:37:38;8.30;;;5.28;;
30301;SDS011;17111;52.130;5.028;2023-05-10T04:40:04;8.93;;;6.05;;
30301;SDS011;17111;52.130;5.028;2023-05-10T04:42:32;7.63;;;5.72;;
30301;SDS011;17111;52.130;5.028;2023-05-10T04:44:58;8.32;;;5.90;;
30301;SDS011;17111;52.130;5.028;2023-05-10T04:47:25;8.07;;;5.63;;
30301;SDS011;17111;52.130;5.028;2023-05-10T04:49:52;10.43;;;6.20;;
30301;SDS011;17111;52.130;5.028;2023-05-10T04:52:18;10.10;;;5.95;;
30301;SDS011;17111;52.130;5.028;2023-05-10T04:54:45;9.55;;;6.00;;
30301;SDS011;17111;52.130;5.028;2023-05-10T04:57:11;8.50;;;5.95;;
30301;SDS011;17111;52.130;5.028;2023-05-10T04:59:38;9.43;;;6.05;;
30301;SDS011;17111;52.130;5.028;2023-05-10T05:02:04;9.27;;;5.97;;
30301;SDS011;17111;52.130;5.028;2023-05-10T05:04:31;8.30;;;5.32;;
30301;SDS011;17111;52.130;5.028;2023-05-10T05:06:58;8.65;;;5.95;;
30301;SDS011;17111;52.130;5.028;2023-05-10T05:09:24;8.35;;;5.93;;
30301;SDS011;17111;52.130;5.028;2023-05-10T05:11:51;10.18;;;6.82;;
30301;SDS011;17111;52.130;5.028;2023-05-10T05:14:17;8.20;;;5.53;;
30301;SDS011;17111;52.130;5.028;2023-05-10T05:16:46;8.10;;;6.05;;
30301;SDS011;17111;52.130;5.028;2023-05-10T05:19:13;8.77;;;6.00;;
30301;SDS011;17111;52.130;5.028;2023-05-10T05:21:39;10.07;;;6.82;;
30301;SDS011;17111;52.130;5.028;2023-05-10T05:24:06;10.73;;;6.32;;
30301;SDS011;17111;52.130;5.028;2023-05-10T05:26:33;10.13;;;6.35;;
30301;SDS011;17111;52.130;5.028;2023-05-10T05:29:00;9.52;;;6.32;;
30301;SDS011;17111;52.130;5.028;2023-05-10T05:31:26;8.50;;;6.70;;
30301;SDS011;17111;52.130;5.028;2023-05-10T05:33:53;10.85;;;7.15;;
30301;SDS011;17111;52.130;5.028;2023-05-10T05:36:19;9.25;;;6.25;;
30301;SDS011;17111;52.130;5.028;2023-05-10T05:38:46;9.05;;;6.38;;
30301;SDS011;17111;52.130;5.028;2023-05-10T05:41:12;7.88;;;6.07;;
30301;SDS011;17111;52.130;5.028;2023-05-10T05:43:39;9.43;;;6.28;;
30301;SDS011;17111;52.130;5.028;2023-05-10T05:46:06;10.55;;;7.18;;
30301;SDS011;17111;52.130;5.028;2023-05-10T05:48:32;9.63;;;6.68;;
30301;SDS011;17111;52.130;5.028;2023-05-10T05:50:59;11.15;;;6.25;;
30301;SDS011;17111;52.130;5.028;2023-05-10T05:53:25;12.10;;;7.13;;
30301;SDS011;17111;52.130;5.028;2023-05-10T05:55:55;11.38;;;6.88;;
30301;SDS011;17111;52.130;5.028;2023-05-10T05:58:23;7.90;;;6.35;;
30301;SDS011;17111;52.130;5.028;2023-05-10T06:00:51;8.85;;;6.32;;
30301;SDS011;17111;52.130;5.028;2023-05-10T06:03:18;9.98;;;6.25;;
30301;SDS011;17111;52.130;5.028;2023-05-10T06:05:45;9.48;;;6.55;;
30301;SDS011;17111;52.130;5.028;2023-05-10T06:08:12;9.68;;;6.25;;
30301;SDS011;17111;52.130;5.028;2023-05-10T06:10:38;8.95;;;6.22;;
30301;SDS011;17111;52.130;5.028;2023-05-10T06:13:05;8.82;;;6.30;;
30301;SDS011;17111;52.130;5.028;2023-05-10T06:15:32;9.50;;;6.63;;
30301;SDS011;17111;52.130;5.028;2023-05-10T06:17:58;9.77;;;6.20;;
30301;SDS011;17111;52.130;5.028;2023-05-10T06:20:25;9.55;;;6.30;;
30301;SDS011;17111;52.130;5.028;2023-05-10T06:22:52;8.38;;;6.00;;
30301;SDS011;17111;52.130;5.028;2023-05-10T06:25:19;8.80;;;6.25;;
30301;SDS011;17111;52.130;5.028;2023-05-10T06:27:45;11.63;;;6.32;;
30301;SDS011;17111;52.130;5.028;2023-05-10T06:30:17;9.07;;;6.07;;
30301;SDS011;17111;52.130;5.028;2023-05-10T06:32:44;9.68;;;5.97;;
30301;SDS011;17111;52.130;5.028;2023-05-10T06:35:11;8.95;;;6.32;;
30301;SDS011;17111;52.130;5.028;2023-05-10T06:37:38;7.88;;;5.65;;
30301;SDS011;17111;52.130;5.028;2023-05-10T06:40:05;7.80;;;6.10;;
30301;SDS011;17111;52.130;5.028;2023-05-10T06:42:32;9.30;;;6.53;;
30301;SDS011;17111;52.130;5.028;2023-05-10T06:44:59;6.88;;;5.38;;
30301;SDS011;17111;52.130;5.028;2023-05-10T06:47:26;7.95;;;5.57;;
30301;SDS011;17111;52.130;5.028;2023-05-10T06:49:52;8.80;;;5.80;;
30301;SDS011;17111;52.130;5.028;2023-05-10T06:52:19;8.13;;;5.82;;
30301;SDS011;17111;52.130;5.028;2023-05-10T06:54:46;9.52;;;5.57;;
30301;SDS011;17111;52.130;5.028;2023-05-10T06:57:12;7.47;;;5.53;;
30301;SDS011;17111;52.130;5.028;2023-05-10T06:59:56;9.43;;;6.25;;
30301;SDS011;17111;52.130;5.028;2023-05-10T07:02:22;8.68;;;6.43;;
30301;SDS011;17111;52.130;5.028;2023-05-10T07:04:49;8.95;;;5.32;;
30301;SDS011;17111;52.130;5.028;2023-05-10T07:07:16;7.00;;;5.35;;
30301;SDS011;17111;52.130;5.028;2023-05-10T07:09:43;6.90;;;5.22;;
30301;SDS011;17111;52.130;5.028;2023-05-10T07:12:09;7.20;;;5.45;;
30301;SDS011;17111;52.130;5.028;2023-05-10T07:14:40;13.05;;;6.63;;
30301;SDS011;17111;52.130;5.028;2023-05-10T07:17:06;11.20;;;6.63;;
30301;SDS011;17111;52.130;5.028;2023-05-10T07:19:33;13.05;;;7.25;;
30301;SDS011;17111;52.130;5.028;2023-05-10T07:22:00;10.45;;;6.68;;
30301;SDS011;17111;52.130;5.028;2023-05-10T07:24:27;10.38;;;5.90;;
30301;SDS011;17111;52.130;5.028;2023-05-10T07:26:53;10.70;;;5.70;;
30301;SDS011;17111;52.130;5.028;2023-05-10T07:29:20;9.00;;;6.22;;
30301;SDS011;17111;52.130;5.028;2023-05-10T07:31:46;10.85;;;6.05;;
30301;SDS011;17111;52.130;5.028;2023-05-10T07:34:13;9.32;;;6.05;;
30301;SDS011;17111;52.130;5.028;2023-05-10T07:36:39;12.52;;;6.15;;
30301;SDS011;17111;52.130;5.028;2023-05-10T07:39:06;11.43;;;6.18;;
30301;SDS011;17111;52.130;5.028;2023-05-10T07:41:33;9.30;;;6.20;;
30301;SDS011;17111;52.130;5.028;2023-05-10T07:44:01;9.80;;;6.05;;
30301;SDS011;17111;52.130;5.028;2023-05-10T07:46:27;10.48;;;6.18;;
30301;SDS011;17111;52.130;5.028;2023-05-10T07:48:54;10.98;;;7.03;;
30301;SDS011;17111;52.130;5.028;2023-05-10T07:51:21;10.52;;;5.93;;
30301;SDS011;17111;52.130;5.028;2023-05-10T07:53:48;11.77;;;7.00;;
30301;SDS011;17111;52.130;5.028;2023-05-10T07:56:28;10.43;;;5.90;;
30301;SDS011;17111;52.130;5.028;2023-05-10T07:58:56;9.82;;;6.07;;
30301;SDS011;17111;52.130;5.028;2023-05-10T08:01:23;11.57;;;6.25;;
30301;SDS011;17111;52.130;5.028;2023-05-10T08:03:50;10.70;;;5.72;;
30301;SDS011;17111;52.130;5.028;2023-05-10T08:06:18;9.63;;;6.18;;
30301;SDS011;17111;52.130;5.028;2023-05-10T08:08:46;11.15;;;6.30;;
30301;SDS011;17111;52.130;5.028;2023-05-10T08:11:18;9.63;;;5.55;;
30301;SDS011;17111;52.130;5.028;2023-05-10T08:13:49;9.98;;;5.80;;
30301;SDS011;17111;52.130;5.028;2023-05-10T08:16:17;11.07;;;6.03;;
30301;SDS011;17111;52.130;5.028;2023-05-10T08:18:44;9.77;;;5.97;;
30301;SDS011;17111;52.130;5.028;2023-05-10T08:21:13;9.88;;;5.63;;
30301;SDS011;17111;52.130;5.028;2023-05-10T08:23:41;7.88;;;5.30;;
30301;SDS011;17111;52.130;5.028;2023-05-10T08:26:09;8.82;;;5.40;;
30301;SDS011;17111;52.130;5.028;2023-05-10T08:28:36;9.63;;;5.57;;
30301;SDS011;17111;52.130;5.028;2023-05-10T08:31:03;9.13;;;5.57;;
30301;SDS011;17111;52.130;5.028;2023-05-10T08:33:31;9.48;;;5.95;;
30301;SDS011;17111;52.130;5.028;2023-05-10T08:35:57;8.70;;;5.53;;
30301;SDS011;17111;52.130;5.028;2023-05-10T08:38:24;8.00;;;5.38;;
30301;SDS011;17111;52.130;5.028;2023-05-10T08:40:51;8.93;;;5.72;;
30301;SDS011;17111;52.130;5.028;2023-05-10T08:43:22;8.68;;;5.88;;
30301;SDS011;17111;52.130;5.028;2023-05-10T08:45:53;7.53;;;5.55;;
30301;SDS011;17111;52.130;5.028;2023-05-10T08:48:22;10.93;;;6.15;;
30301;SDS011;17111;52.130;5.028;2023-05-10T08:50:52;9.57;;;5.88;;
30301;SDS011;17111;52.130;5.028;2023-05-10T08:53:21;10.85;;;5.55;;
30301;SDS011;17111;52.130;5.028;2023-05-10T08:55:49;7.85;;;5.30;;
30301;SDS011;17111;52.130;5.028;2023-05-10T08:58:16;9.45;;;5.18;;
30301;SDS011;17111;52.130;5.028;2023-05-10T09:00:45;10.20;;;5.43;;
30301;SDS011;17111;52.130;5.028;2023-05-10T09:03:15;9.50;;;5.75;;
30301;SDS011;17111;52.130;5.028;2023-05-10T09:05:41;7.95;;;5.45;;
30301;SDS011;17111;52.130;5.028;2023-05-10T09:08:08;6.85;;;4.78;;
30301;SDS011;17111;52.130;5.028;2023-05-10T09:10:35;8.25;;;5.40;;
30301;SDS011;17111;52.130;5.028;2023-05-10T09:13:04;7.32;;;5.00;;
30301;SDS011;17111;52.130;5.028;2023-05-10T09:15:31;8.98;;;6.07;;
30301;SDS011;17111;52.130;5.028;2023-05-10T09:17:58;8.05;;;5.60;;
30301;SDS011;17111;52.130;5.028;2023-05-10T09:20:28;8.43;;;5.03;;
30301;SDS011;17111;52.130;5.028;2023-05-10T09:22:54;6.60;;;4.85;;
30301;SDS011;17111;52.130;5.028;2023-05-10T09:25:21;6.57;;;4.90;;
30301;SDS011;17111;52.130;5.028;2023-05-10T09:27:48;8.05;;;5.63;;
30301;SDS011;17111;52.130;5.028;2023-05-10T09:30:16;6.90;;;4.50;;
30301;SDS011;17111;52.130;5.028;2023-05-10T09:32:48;6.75;;;4.95;;
30301;SDS011;17111;52.130;5.028;2023-05-10T09:35:17;6.30;;;4.97;;
30301;SDS011;17111;52.130;5.028;2023-05-10T09:37:49;6.78;;;4.97;;
30301;SDS011;17111;52.130;5.028;2023-05-10T09:40:21;6.95;;;4.70;;
30301;SDS011;17111;52.130;5.028;2023-05-10T09:42:53;7.22;;;4.72;;
30301;SDS011;17111;52.130;5.028;2023-05-10T09:45:22;8.88;;;4.85;;
30301;SDS011;17111;52.130;5.028;2023-05-10T09:47:50;6.85;;;4.60;;
30301;SDS011;17111;52.130;5.028;2023-05-10T09:50:17;6.70;;;4.63;;
30301;SDS011;17111;52.130;5.028;2023-05-10T09:52:53;6.28;;;4.18;;
30301;SDS011;17111;52.130;5.028;2023-05-10T09:55:25;6.22;;;4.32;;
30301;SDS011;17111;52.130;5.028;2023-05-10T09:58:06;8.40;;;4.93;;
30301;SDS011;17111;52.130;5.028;2023-05-10T10:00:37;6.30;;;4.78;;
30301;SDS011;17111;52.130;5.028;2023-05-10T10:03:05;7.80;;;4.88;;
30301;SDS011;17111;52.130;5.028;2023-05-10T10:05:40;8.57;;;5.35;;
30301;SDS011;17111;52.130;5.028;2023-05-10T10:08:08;6.72;;;4.68;;
30301;SDS011;17111;52.130;5.028;2023-05-10T10:10:36;6.22;;;4.55;;
30301;SDS011;17111;52.130;5.028;2023-05-10T10:13:03;6.18;;;4.57;;
30301;SDS011;17111;52.130;5.028;2023-05-10T10:15:31;7.60;;;4.55;;
30301;SDS011;17111;52.130;5.028;2023-05-10T10:17:59;5.53;;;4.28;;
30301;SDS011;17111;52.130;5.028;2023-05-10T10:20:26;5.53;;;4.60;;
30301;SDS011;17111;52.130;5.028;2023-05-10T10:22:54;5.03;;;4.18;;
30301;SDS011;17111;52.130;5.028;2023-05-10T10:25:21;5.78;;;4.47;;
30301;SDS011;17111;52.130;5.028;2023-05-10T10:33:12;7.88;;;4.22;;
30301;SDS011;17111;52.130;5.028;2023-05-10T10:35:54;5.75;;;4.10;;
30301;SDS011;17111;52.130;5.028;2023-05-10T10:38:24;5.57;;;4.18;;
30301;SDS011;17111;52.130;5.028;2023-05-10T10:41:08;5.55;;;3.70;;
30301;SDS011;17111;52.130;5.028;2023-05-10T10:43:36;6.10;;;3.85;;
30301;SDS011;17111;52.130;5.028;2023-05-10T10:46:13;7.20;;;4.38;;
30301;SDS011;17111;52.130;5.028;2023-05-10T10:48:50;5.63;;;4.07;;
30301;SDS011;17111;52.130;5.028;2023-05-10T10:51:38;6.10;;;4.10;;
30301;SDS011;17111;52.130;5.028;2023-05-10T10:54:11;5.10;;;3.95;;
30301;SDS011;17111;52.130;5.028;2023-05-10T10:56:38;5.10;;;3.65;;
30301;SDS011;17111;52.130;5.028;2023-05-10T10:59:04;6.13;;;3.95;;
30301;SDS011;17111;52.130;5.028;2023-05-10T11:01:34;4.47;;;3.42;;
30301;SDS011;17111;52.130;5.028;2023-05-10T11:06:31;5.03;;;3.75;;
30301;SDS011;17111;52.130;5.028;2023-05-10T11:08:59;4.70;;;3.75;;
30301;SDS011;17111;52.130;5.028;2023-05-10T11:11:32;6.03;;;3.83;;
30301;SDS011;17111;52.130;5.028;2023-05-10T11:14:04;6.68;;;3.63;;
30301;SDS011;17111;52.130;5.028;2023-05-10T11:16:44;5.03;;;3.65;;
30301;SDS011;17111;52.130;5.028;2023-05-10T11:19:11;5.75;;;4.05;;
30301;SDS011;17111;52.130;5.028;2023-05-10T11:21:49;4.97;;;3.53;;
30301;SDS011;17111;52.130;5.028;2023-05-10T11:24:39;6.00;;;3.60;;
30301;SDS011;17111;52.130;5.028;2023-05-10T11:27:06;4.57;;;3.90;;
30301;SDS011;17111;52.130;5.028;2023-05-10T11:29:33;5.40;;;3.63;;
30301;SDS011;17111;52.130;5.028;2023-05-10T11:31:59;3.92;;;2.97;;
30301;SDS011;17111;52.130;5.028;2023-05-10T11:34:27;4.40;;;3.22;;
30301;SDS011;17111;52.130;5.028;2023-05-10T11:36:56;4.55;;;2.70;;
30301;SDS011;17111;52.130;5.028;2023-05-10T11:39:29;4.70;;;3.25;;
30301;SDS011;17111;52.130;5.028;2023-05-10T11:41:57;4.43;;;3.15;;
30301;SDS011;17111;52.130;5.028;2023-05-10T11:44:31;3.40;;;2.83;;
30301;SDS011;17111;52.130;5.028;2023-05-10T11:46:59;4.47;;;3.22;;
30301;SDS011;17111;52.130;5.028;2023-05-10T11:49:26;4.80;;;3.50;;
30301;SDS011;17111;52.130;5.028;2023-05-10T11:51:53;3.92;;;3.00;;
30301;SDS011;17111;52.130;5.028;2023-05-10T11:54:30;3.78;;;2.80;;
30301;SDS011;17111;52.130;5.028;2023-05-10T11:57:01;5.47;;;3.20;;
30301;SDS011;17111;52.130;5.028;2023-05-10T11:59:28;7.30;;;3.60;;
30301;SDS011;17111;52.130;5.028;2023-05-10T12:01:54;5.13;;;3.40;;
30301;SDS011;17111;52.130;5.028;2023-05-10T12:04:21;7.45;;;3.45;;
30301;SDS011;17111;52.130;5.028;2023-05-10T12:06:48;5.40;;;3.08;;
30301;SDS011;17111;52.130;5.028;2023-05-10T12:09:15;3.13;;;2.75;;
30301;SDS011;17111;52.130;5.028;2023-05-10T12:11:48;4.23;;;3.23;;
30301;SDS011;17111;52.130;5.028;2023-05-10T12:14:14;4.20;;;2.95;;
30301;SDS011;17111;52.130;5.028;2023-05-10T12:16:42;5.10;;;2.90;;
30301;SDS011;17111;52.130;5.028;2023-05-10T12:19:09;4.32;;;3.17;;
30301;SDS011;17111;52.130;5.028;2023-05-10T12:21:36;4.32;;;2.80;;
30301;SDS011;17111;52.130;5.028;2023-05-10T12:24:04;3.13;;;2.78;;
30301;SDS011;17111;52.130;5.028;2023-05-10T12:26:31;3.67;;;2.97;;
30301;SDS011;17111;52.130;5.028;2023-05-10T12:29:17;4.43;;;2.88;;
30301;SDS011;17111;52.130;5.028;2023-05-10T12:31:55;3.88;;;3.03;;
30301;SDS011;17111;52.130;5.028;2023-05-10T12:36:54;4.68;;;3.30;;
30301;SDS011;17111;52.130;5.028;2023-05-10T12:39:21;4.15;;;3.00;;
30301;SDS011;17111;52.130;5.028;2023-05-10T12:41:48;3.75;;;2.65;;
30301;SDS011;17111;52.130;5.028;2023-05-10T12:44:14;3.85;;;2.95;;
30301;SDS011;17111;52.130;5.028;2023-05-10T12:46:41;4.45;;;2.97;;
30301;SDS011;17111;52.130;5.028;2023-05-10T12:49:08;3.40;;;2.63;;
30301;SDS011;17111;52.130;5.028;2023-05-10T12:51:35;3.47;;;2.58;;
30301;SDS011;17111;52.130;5.028;2023-05-10T12:54:02;4.50;;;2.95;;
30301;SDS011;17111;52.130;5.028;2023-05-10T12:56:28;3.55;;;2.70;;
30301;SDS011;17111;52.130;5.028;2023-05-10T12:58:55;3.38;;;2.80;;
30301;SDS011;17111;52.130;5.028;2023-05-10T13:01:22;4.50;;;2.80;;
30301;SDS011;17111;52.130;5.028;2023-05-10T13:03:48;4.55;;;3.03;;
30301;SDS011;17111;52.130;5.028;2023-05-10T13:06:15;4.65;;;3.17;;
30301;SDS011;17111;52.130;5.028;2023-05-10T13:08:42;3.10;;;2.55;;
30301;SDS011;17111;52.130;5.028;2023-05-10T13:11:08;3.33;;;2.80;;
30301;SDS011;17111;52.130;5.028;2023-05-10T13:13:35;3.63;;;2.83;;
30301;SDS011;17111;52.130;5.028;2023-05-10T13:16:02;3.58;;;2.72;;
30301;SDS011;17111;52.130;5.028;2023-05-10T13:18:28;3.72;;;3.13;;
30301;SDS011;17111;52.130;5.028;2023-05-10T13:20:55;4.03;;;3.00;;
30301;SDS011;17111;52.130;5.028;2023-05-10T13:23:22;3.88;;;2.40;;
30301;SDS011;17111;52.130;5.028;2023-05-10T13:25:48;3.53;;;2.90;;
30301;SDS011;17111;52.130;5.028;2023-05-10T13:28:15;4.55;;;3.00;;
30301;SDS011;17111;52.130;5.028;2023-05-10T13:30:42;4.03;;;2.65;;
30301;SDS011;17111;52.130;5.028;2023-05-10T13:33:08;4.53;;;3.03;;
30301;SDS011;17111;52.130;5.028;2023-05-10T13:35:35;4.28;;;2.75;;
30301;SDS011;17111;52.130;5.028;2023-05-10T13:38:02;4.15;;;3.00;;
30301;SDS011;17111;52.130;5.028;2023-05-10T13:40:28;3.65;;;2.60;;
30301;SDS011;17111;52.130;5.028;2023-05-10T13:42:55;3.38;;;2.55;;
30301;SDS011;17111;52.130;5.028;2023-05-10T13:45:21;3.78;;;2.50;;
30301;SDS011;17111;52.130;5.028;2023-05-10T13:47:48;3.70;;;2.95;;
30301;SDS011;17111;52.130;5.028;2023-05-10T13:50:14;3.25;;;2.85;;
30301;SDS011;17111;52.130;5.028;2023-05-10T13:52:41;3.75;;;2.60;;
30301;SDS011;17111;52.130;5.028;2023-05-10T13:55:08;4.05;;;2.83;;
30301;SDS011;17111;52.130;5.028;2023-05-10T13:57:34;3.47;;;2.80;;
30301;SDS011;17111;52.130;5.028;2023-05-10T14:00:02;3.70;;;2.70;;
30301;SDS011;17111;52.130;5.028;2023-05-10T14:02:28;3.15;;;2.55;;
30301;SDS011;17111;52.130;5.028;2023-05-10T14:04:55;3.90;;;2.85;;
30301;SDS011;17111;52.130;5.028;2023-05-10T14:07:22;3.88;;;2.50;;
30301;SDS011;17111;52.130;5.028;2023-05-10T14:09:48;3.28;;;2.65;;
30301;SDS011;17111;52.130;5.028;2023-05-10T14:12:15;3.72;;;2.45;;
30301;SDS011;17111;52.130;5.028;2023-05-10T14:14:42;3.38;;;2.60;;
30301;SDS011;17111;52.130;5.028;2023-05-10T14:17:08;3.67;;;2.63;;
30301;SDS011;17111;52.130;5.028;2023-05-10T14:19:37;3.35;;;2.72;;
30301;SDS011;17111;52.130;5.028;2023-05-10T14:22:05;3.72;;;2.88;;
30301;SDS011;17111;52.130;5.028;2023-05-10T14:24:31;3.55;;;2.67;;
30301;SDS011;17111;52.130;5.028;2023-05-10T14:26:58;3.72;;;2.55;;
30301;SDS011;17111;52.130;5.028;2023-05-10T14:29:25;3.05;;;2.30;;
30301;SDS011;17111;52.130;5.028;2023-05-10T14:31:51;3.55;;;2.80;;
30301;SDS011;17111;52.130;5.028;2023-05-10T14:34:18;3.55;;;2.70;;
30301;SDS011;17111;52.130;5.028;2023-05-10T14:36:44;4.05;;;2.88;;
30301;SDS011;17111;52.130;5.028;2023-05-10T14:39:11;3.38;;;2.67;;
30301;SDS011;17111;52.130;5.028;2023-05-10T14:41:39;3.45;;;2.70;;
30301;SDS011;17111;52.130;5.028;2023-05-10T14:44:10;3.80;;;2.67;;
30301;SDS011;17111;52.130;5.028;2023-05-10T14:46:37;3.08;;;2.33;;
30301;SDS011;17111;52.130;5.028;2023-05-10T14:49:04;3.17;;;2.30;;
30301;SDS011;17111;52.130;5.028;2023-05-10T14:51:31;2.75;;;2.45;;
30301;SDS011;17111;52.130;5.028;2023-05-10T14:53:57;2.92;;;2.47;;
30301;SDS011;17111;52.130;5.028;2023-05-10T14:56:24;2.97;;;2.35;;
30301;SDS011;17111;52.130;5.028;2023-05-10T14:58:52;3.10;;;2.70;;
30301;SDS011;17111;52.130;5.028;2023-05-10T15:01:24;4.18;;;2.22;;
30301;SDS011;17111;52.130;5.028;2023-05-10T15:03:51;3.72;;;2.30;;
30301;SDS011;17111;52.130;5.028;2023-05-10T15:06:22;3.05;;;2.50;;
30301;SDS011;17111;52.130;5.028;2023-05-10T15:08:51;3.80;;;2.20;;
30301;SDS011;17111;52.130;5.028;2023-05-10T15:11:18;2.30;;;2.10;;
30301;SDS011;17111;52.130;5.028;2023-05-10T15:13:44;3.30;;;2.35;;
30301;SDS011;17111;52.130;5.028;2023-05-10T15:16:11;4.80;;;2.90;;